createdAt,value
2022-10-22T00:04:04.448Z,100695.06
2022-10-22T00:09:07.515Z,100696.94
2022-10-22T00:14:13.266Z,100690.81
2022-10-22T00:19:16.340Z,100698.81
2022-10-22T00:24:19.743Z,100699.69
2022-10-22T00:29:24.127Z,100681.31
2022-10-22T00:34:27.185Z,100683.19
2022-10-22T00:39:30.397Z,100683.31
2022-10-22T00:45:08.079Z,100677.13
2022-10-22T00:50:15.425Z,100680.50
2022-10-22T00:55:19.607Z,100680.50
2022-10-22T01:00:24.869Z,100674.31
2022-10-22T01:05:29.904Z,100679.50
2022-10-22T01:10:47.266Z,100683.00
2022-10-22T01:15:56.713Z,100681.13
2022-10-22T01:21:16.429Z,100691.66
2022-10-22T01:26:27.720Z,100697.84
2022-10-22T01:37:16.660Z,100673.19
2022-10-22T01:42:19.503Z,100663.75
2022-10-22T01:47:38.079Z,100664.88
2022-10-22T01:52:58.014Z,100682.63
2022-10-22T01:58:11.176Z,100689.00
2022-10-22T02:03:23.672Z,100702.19
2022-10-22T02:08:32.456Z,100699.47
2022-10-22T02:13:41.421Z,100687.19
2022-10-22T02:18:47.579Z,100695.28
2022-10-22T02:23:51.755Z,100706.75
2022-10-22T02:29:02.163Z,100713.75
2022-10-22T02:34:10.161Z,100712.97
2022-10-22T02:44:22.982Z,100708.41
2022-10-22T02:49:25.687Z,100712.75
2022-10-22T02:54:29.749Z,100706.63
2022-10-22T02:59:32.454Z,100705.81
2022-10-22T03:04:36.126Z,100698.13
2022-10-22T03:09:40.260Z,100700.94
2022-10-22T03:14:43.079Z,100703.59
2022-10-22T03:19:45.790Z,100717.59
2022-10-22T03:24:53.697Z,100722.00
2022-10-22T03:29:57.922Z,100720.97
2022-10-22T03:40:11.706Z,100716.53
2022-10-22T03:45:14.567Z,100731.56
2022-10-22T03:50:17.794Z,100722.00
2022-10-22T03:55:21.881Z,100722.06
2022-10-22T04:00:24.622Z,100716.75
2022-10-22T04:05:27.334Z,100714.84
2022-10-22T04:10:31.427Z,100721.06
2022-10-22T04:15:34.166Z,100733.47
2022-10-22T04:20:36.957Z,100739.59
2022-10-22T04:25:41.029Z,100742.19
2022-10-22T04:30:43.771Z,100747.47
2022-10-22T04:35:46.549Z,100752.78
2022-10-22T04:40:50.661Z,100750.94
2022-10-22T04:45:53.367Z,100749.25
2022-10-22T04:50:58.276Z,100743.28
2022-10-22T04:56:10.214Z,100741.63
2022-10-22T05:01:15.272Z,100739.94
2022-10-22T05:06:18.588Z,100726.88
2022-10-22T05:11:25.019Z,100731.28
2022-10-22T05:16:30.047Z,100736.47
2022-10-22T05:21:32.819Z,100741.88
2022-10-22T05:26:36.906Z,100743.66
2022-10-22T05:31:39.910Z,100741.00
2022-10-22T05:36:42.771Z,100749.91
2022-10-22T05:41:46.817Z,100754.44
2022-10-22T05:46:49.500Z,100751.00
2022-10-22T05:51:52.189Z,100752.78
2022-10-22T05:56:56.601Z,100766.84
2022-10-22T06:01:59.338Z,100768.53
2022-10-22T06:07:03.229Z,100769.44
2022-10-22T06:12:10.748Z,100772.91
2022-10-22T06:17:13.880Z,100778.94
2022-10-22T06:22:17.258Z,100772.75
2022-10-22T06:27:21.341Z,100765.84
2022-10-22T06:32:24.146Z,100779.25
2022-10-22T06:37:26.902Z,100795.28
2022-10-22T06:42:31.091Z,100793.44
2022-10-22T06:47:33.972Z,100814.53
2022-10-22T06:52:36.772Z,100817.81
2022-10-22T06:57:41.119Z,100827.66
2022-10-22T07:02:44.239Z,100830.56
2022-10-22T07:07:47.183Z,100834.16
2022-10-22T07:12:51.535Z,100841.41
2022-10-22T07:17:54.228Z,100838.88
2022-10-22T07:22:56.959Z,100843.53
2022-10-22T07:28:01.063Z,100846.41
2022-10-22T07:33:03.785Z,100840.53
2022-10-22T07:38:07.071Z,100836.38
2022-10-22T07:43:11.163Z,100834.81
2022-10-22T07:48:13.888Z,100846.44
2022-10-22T07:53:16.586Z,100851.06
2022-10-22T07:58:22.479Z,100852.00
2022-10-22T08:03:25.427Z,100856.72
2022-10-22T08:08:30.827Z,100857.84
2022-10-22T08:13:35.343Z,100860.69
2022-10-22T08:18:38.607Z,100855.72
2022-10-22T08:23:41.335Z,100873.59
2022-10-22T08:28:45.460Z,100879.13
2022-10-22T08:33:48.312Z,100888.25
2022-10-22T08:38:51.016Z,100884.06
2022-10-22T08:44:17.088Z,100896.72
2022-10-22T08:49:23.750Z,100897.75
2022-10-22T08:54:34.524Z,100904.16
2022-10-22T08:59:45.884Z,100910.47
2022-10-22T09:04:56.860Z,100914.19
2022-10-22T09:10:02.006Z,100912.66
2022-10-22T09:15:06.783Z,100914.63
2022-10-22T09:20:16.974Z,100917.56
2022-10-22T09:25:22.685Z,100923.06
2022-10-22T09:30:29.722Z,100925.88
2022-10-22T09:35:35.810Z,100927.84
2022-10-22T09:40:45.607Z,100937.78
2022-10-22T09:45:57.094Z,100946.94
2022-10-22T09:51:06.480Z,100946.38
2022-10-22T09:56:11.857Z,100953.88
2022-10-22T10:01:20.862Z,100964.66
2022-10-22T10:06:24.435Z,100966.56
2022-10-22T10:11:31.568Z,100971.09
2022-10-22T10:16:44.060Z,100965.97
2022-10-22T10:21:55.777Z,100970.44
2022-10-22T10:27:03.786Z,100968.78
2022-10-22T10:32:40.193Z,100970.13
2022-10-22T10:37:47.514Z,100962.59
2022-10-22T10:42:56.282Z,100962.22
2022-10-22T10:48:27.946Z,100956.72
2022-10-22T10:53:45.905Z,100956.47
2022-10-22T10:58:57.292Z,100958.66
2022-10-22T11:04:22.418Z,100957.94
2022-10-22T11:09:28.998Z,100959.16
2022-10-22T11:14:37.033Z,100963.06
2022-10-22T11:19:51.700Z,100956.22
2022-10-22T11:25:01.144Z,100956.31
2022-10-22T11:30:06.591Z,100958.13
2022-10-22T11:35:17.046Z,100949.34
2022-10-22T11:40:21.330Z,100961.84
2022-10-22T11:45:32.713Z,100958.31
2022-10-22T11:50:52.975Z,100961.00
2022-10-22T11:55:59.743Z,100967.19
2022-10-22T12:01:24.861Z,100961.09
2022-10-22T12:06:29.717Z,100955.03
2022-10-22T12:11:38.843Z,100954.25
2022-10-22T12:16:55.870Z,100957.97
2022-10-22T12:22:14.194Z,100952.03
2022-10-22T12:27:22.753Z,100953.22
2022-10-22T12:32:37.013Z,100954.31
2022-10-22T12:37:41.556Z,100947.19
2022-10-22T12:42:48.950Z,100946.44
2022-10-22T12:47:57.126Z,100947.47
2022-10-22T12:53:01.588Z,100946.47
2022-10-22T12:58:07.173Z,100945.50
2022-10-22T13:03:27.427Z,100946.47
2022-10-22T13:08:35.190Z,100949.16
2022-10-22T13:13:45.682Z,100949.25
2022-10-22T13:18:49.661Z,100952.00
2022-10-22T13:23:59.837Z,100950.31
2022-10-22T13:29:04.014Z,100953.00
2022-10-22T13:34:11.777Z,100960.13
2022-10-22T13:39:19.513Z,100959.19
2022-10-22T13:44:22.229Z,100964.47
2022-10-22T13:49:25.169Z,100958.31
2022-10-22T13:54:29.255Z,100956.53
2022-10-22T13:59:31.944Z,100958.22
2022-10-22T14:04:37.256Z,100958.06
2022-10-22T14:09:41.534Z,100959.78
2022-10-22T14:14:44.565Z,100957.97
2022-10-22T14:19:49.935Z,100960.59
2022-10-22T14:24:54.360Z,100970.31
2022-10-22T14:29:59.482Z,100967.56
2022-10-22T14:35:02.423Z,100971.03
2022-10-22T14:40:08.257Z,100962.78
2022-10-22T14:45:15.086Z,100967.94
2022-10-22T14:50:18.917Z,100969.56
2022-10-22T14:55:23.013Z,100968.47
2022-10-22T15:00:25.758Z,100968.22
2022-10-22T15:05:28.791Z,100967.06
2022-10-22T15:10:32.886Z,100973.03
2022-10-22T15:15:39.474Z,100978.16
2022-10-22T15:20:42.647Z,100992.09
2022-10-22T15:25:46.720Z,101000.69
2022-10-22T15:30:54.086Z,100999.50
2022-10-22T15:35:57.684Z,101007.25
2022-10-22T15:41:06.443Z,101001.69
2022-10-22T15:46:14.568Z,101006.69
2022-10-22T15:51:19.613Z,101013.59
2022-10-22T15:56:25.043Z,101015.06
2022-10-22T16:01:28.749Z,101015.72
2022-10-22T16:06:33.912Z,101026.91
2022-10-22T16:11:39.474Z,101029.31
2022-10-22T16:16:44.895Z,101030.09
2022-10-22T16:21:50.124Z,101029.97
2022-10-22T16:26:54.270Z,101034.22
2022-10-22T16:31:57.259Z,101035.06
2022-10-22T16:36:59.956Z,101037.47
2022-10-22T16:42:04.290Z,101046.22
2022-10-22T16:47:07.033Z,101038.97
2022-10-22T16:52:09.759Z,101042.38
2022-10-22T16:57:14.149Z,101051.09
2022-10-22T17:02:16.886Z,101049.16
2022-10-22T17:07:19.873Z,101051.69
2022-10-22T17:12:24.150Z,101058.59
2022-10-22T17:17:26.869Z,101063.78
2022-10-22T17:22:30.021Z,101072.50
2022-10-22T17:27:34.079Z,101067.84
2022-10-22T17:32:38.916Z,101084.34
2022-10-22T17:37:42.054Z,101085.75
2022-10-22T17:42:46.470Z,101089.00
2022-10-22T17:47:49.352Z,101094.06
2022-10-22T17:52:52.091Z,101099.97
2022-10-22T17:57:56.342Z,101096.25
2022-10-22T18:03:00.205Z,101105.72
2022-10-22T18:08:07.014Z,101098.53
2022-10-22T18:13:12.066Z,101096.63
2022-10-22T18:18:14.768Z,101103.50
2022-10-22T18:23:17.749Z,101106.94
2022-10-22T18:28:21.845Z,101114.84
2022-10-22T18:33:25.203Z,101123.53
2022-10-22T18:38:27.921Z,101123.59
2022-10-22T18:43:32.014Z,101116.72
2022-10-22T18:48:35.577Z,101112.31
2022-10-22T18:53:38.801Z,101120.25
2022-10-22T18:58:45.954Z,101115.00
2022-10-22T19:03:49.484Z,101124.72
2022-10-22T19:08:52.219Z,101121.03
2022-10-22T19:13:56.372Z,101123.69
2022-10-22T19:19:04.326Z,101131.56
2022-10-22T19:24:08.188Z,101125.25
2022-10-22T19:29:12.279Z,101125.16
2022-10-22T19:34:15.347Z,101127.69
2022-10-22T19:39:18.990Z,101128.44
2022-10-22T19:44:23.162Z,101135.34
2022-10-22T19:49:25.952Z,101143.03
2022-10-22T19:54:28.652Z,101147.22
2022-10-22T19:59:33.846Z,101158.53
2022-10-22T20:04:37.209Z,101167.25
2022-10-22T20:09:40.213Z,101173.19
2022-10-22T20:14:44.369Z,101189.75
2022-10-22T20:19:47.060Z,101188.72
2022-10-22T20:24:50.101Z,101197.38
2022-10-22T20:29:54.196Z,101194.66
2022-10-22T20:34:56.943Z,101197.38
2022-10-22T20:39:59.780Z,101207.03
2022-10-22T20:45:03.904Z,101212.31
2022-10-22T20:50:07.545Z,101214.91
2022-10-22T20:55:10.413Z,101223.75
2022-10-22T21:00:15.790Z,101223.81
2022-10-22T21:05:18.861Z,101223.88
2022-10-22T21:10:21.572Z,101224.75
2022-10-22T21:15:27.161Z,101232.69
2022-10-22T21:20:29.980Z,101233.59
2022-10-22T21:25:33.105Z,101226.53
2022-10-22T21:30:37.203Z,101235.34
2022-10-22T21:35:40.042Z,101236.25
2022-10-22T21:40:43.126Z,101236.13
2022-10-22T21:45:47.456Z,101242.13
2022-10-22T21:50:50.156Z,101240.19
2022-10-22T21:55:52.861Z,101251.56
2022-10-22T22:00:59.135Z,101252.25
2022-10-22T22:06:03.639Z,101254.75
2022-10-22T22:11:08.044Z,101259.22
2022-10-22T22:16:14.647Z,101268.00
2022-10-22T22:21:19.733Z,101267.06
2022-10-22T22:26:28.330Z,101267.94
2022-10-22T22:31:35.343Z,101266.28
2022-10-22T22:36:40.344Z,101261.94
2022-10-22T22:41:43.584Z,101268.88
2022-10-22T22:46:47.656Z,101271.47
2022-10-22T22:51:50.736Z,101264.34
2022-10-22T22:56:53.409Z,101262.47
2022-10-22T23:01:57.554Z,101264.16
2022-10-22T23:07:00.312Z,101264.16
2022-10-22T23:12:03.794Z,101269.38
2022-10-22T23:17:07.898Z,101264.97
2022-10-22T23:22:10.785Z,101257.88
2022-10-22T23:27:13.494Z,101266.69
2022-10-22T23:32:17.565Z,101268.34
2022-10-22T23:37:20.529Z,101268.09
2022-10-22T23:42:23.249Z,101262.47
2022-10-22T23:47:27.366Z,101262.19
2022-10-22T23:52:30.899Z,101256.56
2022-10-22T23:57:33.590Z,101261.63
